createdAt,value
2018-10-11T00:00:57.608Z,15.97
2018-10-11T00:03:25.767Z,15.97
2018-10-11T00:05:53.911Z,15.94
2018-10-11T00:08:22.080Z,15.94
2018-10-11T00:10:50.225Z,15.96
2018-10-11T00:13:18.412Z,15.95
2018-10-11T00:15:46.620Z,15.96
2018-10-11T00:18:14.774Z,15.95
2018-10-11T00:20:42.960Z,15.95
2018-10-11T00:23:11.163Z,15.93
2018-10-11T00:25:39.347Z,15.92
2018-10-11T00:28:07.516Z,15.90
2018-10-11T00:30:35.822Z,15.90
2018-10-11T00:33:03.931Z,15.90
2018-10-11T00:35:32.094Z,15.91
2018-10-11T00:38:00.515Z,15.90
2018-10-11T00:40:28.681Z,15.92
2018-10-11T00:42:56.859Z,15.94
2018-10-11T00:45:25.024Z,15.94
2018-10-11T00:47:53.305Z,15.94
2018-10-11T00:50:21.457Z,15.93
2018-10-11T00:52:49.639Z,15.93
2018-10-11T00:55:17.807Z,15.92
2018-10-11T00:57:45.963Z,15.91
2018-10-11T01:00:14.208Z,15.90
2018-10-11T01:02:42.393Z,15.91
2018-10-11T01:05:10.542Z,15.88
2018-10-11T01:07:38.830Z,15.88
2018-10-11T01:10:07.119Z,15.88
2018-10-11T01:12:35.245Z,15.87
2018-10-11T01:15:03.503Z,15.86
2018-10-11T01:17:31.663Z,15.87
2018-10-11T01:19:59.823Z,15.90
2018-10-11T01:22:28.027Z,15.94
2018-10-11T01:24:56.221Z,15.97
2018-10-11T01:27:24.423Z,15.97
2018-10-11T01:29:52.628Z,15.96
2018-10-11T01:32:20.799Z,15.95
2018-10-11T01:34:48.967Z,15.93
2018-10-11T01:37:17.191Z,15.92
2018-10-11T01:39:45.427Z,15.93
2018-10-11T01:42:13.568Z,15.91
2018-10-11T01:44:41.739Z,15.91
2018-10-11T01:47:09.907Z,15.91
2018-10-11T01:49:38.143Z,15.91
2018-10-11T01:52:06.354Z,15.90
2018-10-11T01:54:34.521Z,15.91
2018-10-11T01:57:02.724Z,15.89
2018-10-11T01:59:31.037Z,15.86
2018-10-11T02:01:59.241Z,15.81
2018-10-11T02:04:27.587Z,15.76
2018-10-11T02:06:55.843Z,15.72
2018-10-11T02:09:24.281Z,15.72
2018-10-11T02:11:52.482Z,15.71
2018-10-11T02:14:20.695Z,15.67
2018-10-11T02:16:48.902Z,15.63
2018-10-11T02:19:17.062Z,15.63
2018-10-11T02:21:45.228Z,15.58
2018-10-11T02:24:13.423Z,15.53
2018-10-11T02:26:41.609Z,15.48
2018-10-11T02:29:10.198Z,15.44
2018-10-11T02:31:38.365Z,15.42
2018-10-11T02:34:06.531Z,15.40
2018-10-11T02:36:34.727Z,15.37
2018-10-11T02:39:02.947Z,15.36
2018-10-11T02:41:31.132Z,15.35
2018-10-11T02:43:59.283Z,15.35
2018-10-11T02:46:27.507Z,15.35
2018-10-11T02:48:55.726Z,15.35
2018-10-11T02:51:23.978Z,15.35
2018-10-11T02:53:52.407Z,15.34
2018-10-11T02:56:22.063Z,15.33
2018-10-11T02:59:01.563Z,15.33
2018-10-11T03:01:29.811Z,15.31
2018-10-11T03:04:01.735Z,15.33
2018-10-11T03:06:29.965Z,15.33
2018-10-11T03:08:58.159Z,15.31
2018-10-11T03:11:26.356Z,15.31
2018-10-11T03:13:54.507Z,15.29
2018-10-11T03:16:22.659Z,15.29
2018-10-11T03:18:50.828Z,15.28
2018-10-11T03:21:19.570Z,15.26
2018-10-11T03:23:47.750Z,15.23
2018-10-11T03:26:15.938Z,15.24
2018-10-11T03:28:44.089Z,15.23
2018-10-11T03:31:12.250Z,15.21
2018-10-11T03:33:40.431Z,15.19
2018-10-11T03:36:08.683Z,15.20
2018-10-11T03:38:36.851Z,15.21
2018-10-11T03:41:05.023Z,15.21
2018-10-11T03:43:33.187Z,15.18
2018-10-11T03:46:01.383Z,15.19
2018-10-11T03:48:29.541Z,15.18
2018-10-11T03:50:57.717Z,15.21
2018-10-11T03:53:25.912Z,15.22
2018-10-11T03:55:54.143Z,15.21
2018-10-11T03:58:22.355Z,15.25
2018-10-11T04:00:50.551Z,15.25
2018-10-11T04:03:18.741Z,15.26
2018-10-11T04:05:46.914Z,15.26
2018-10-11T04:08:15.090Z,15.25
2018-10-11T04:10:43.297Z,15.25
2018-10-11T04:13:11.723Z,15.25
2018-10-11T04:15:39.954Z,15.26
2018-10-11T04:18:08.116Z,15.25
2018-10-11T04:20:36.284Z,15.23
2018-10-11T04:23:04.676Z,15.21
2018-10-11T04:25:32.852Z,15.19
2018-10-11T04:28:01.026Z,15.18
2018-10-11T04:30:29.222Z,15.16
2018-10-11T04:32:57.987Z,15.13
2018-10-11T04:35:26.556Z,15.10
2018-10-11T04:37:54.772Z,15.09
2018-10-11T04:40:22.940Z,15.08
2018-10-11T04:42:51.167Z,15.06
2018-10-11T04:45:19.293Z,15.07
2018-10-11T04:47:47.635Z,15.05
2018-10-11T04:50:15.823Z,15.04
2018-10-11T04:52:44.216Z,15.03
2018-10-11T04:55:12.396Z,14.99
2018-10-11T04:57:40.585Z,14.97
2018-10-11T05:00:15.422Z,14.95
2018-10-11T05:02:43.612Z,14.92
2018-10-11T05:05:11.797Z,14.89
2018-10-11T05:07:39.966Z,14.86
2018-10-11T05:10:08.174Z,14.82
2018-10-11T05:12:36.504Z,14.80
2018-10-11T05:15:04.860Z,14.77
2018-10-11T05:17:33.652Z,14.75
2018-10-11T05:20:01.899Z,14.74
2018-10-11T05:22:30.058Z,14.73
2018-10-11T05:24:58.331Z,14.72
2018-10-11T05:27:26.575Z,14.70
2018-10-11T05:29:54.747Z,14.68
2018-10-11T05:32:22.991Z,14.69
2018-10-11T05:34:51.204Z,14.69
2018-10-11T05:37:19.438Z,14.67
2018-10-11T05:39:47.694Z,14.67
2018-10-11T05:42:22.509Z,14.68
2018-10-11T05:44:51.047Z,14.72
2018-10-11T05:47:19.245Z,14.72
2018-10-11T05:49:47.470Z,14.73
2018-10-11T05:52:15.755Z,14.75
2018-10-11T05:54:44.092Z,14.78
2018-10-11T05:57:12.268Z,14.82
2018-10-11T05:59:40.440Z,14.81
2018-10-11T06:02:08.811Z,14.81
2018-10-11T06:04:37.300Z,14.83
2018-10-11T06:07:05.717Z,14.86
2018-10-11T06:09:33.896Z,14.88
2018-10-11T06:12:02.159Z,14.90
2018-10-11T06:14:30.227Z,14.93
2018-10-11T06:16:58.387Z,14.97
2018-10-11T06:19:26.567Z,15.01
2018-10-11T06:21:54.726Z,15.03
2018-10-11T06:24:22.887Z,15.05
2018-10-11T06:26:51.072Z,15.07
2018-10-11T06:29:25.827Z,15.07
2018-10-11T06:31:54.026Z,15.08
2018-10-11T06:34:22.208Z,15.08
2018-10-11T06:36:50.381Z,15.08
2018-10-11T06:39:18.575Z,15.10
2018-10-11T06:41:46.761Z,15.11
2018-10-11T06:44:14.915Z,15.12
2018-10-11T06:46:43.088Z,15.12
2018-10-11T06:49:11.258Z,15.15
2018-10-11T06:51:39.431Z,15.20
2018-10-11T06:54:07.615Z,15.24
2018-10-11T06:56:35.791Z,15.28
2018-10-11T06:59:03.955Z,15.30
2018-10-11T07:01:32.145Z,15.33
2018-10-11T07:04:00.300Z,15.34
2018-10-11T07:06:28.831Z,15.34
2018-10-11T07:08:56.971Z,15.35
2018-10-11T07:11:25.129Z,15.36
2018-10-11T07:13:53.297Z,15.36
2018-10-11T07:16:21.463Z,15.39
2018-10-11T07:18:49.838Z,15.42
2018-10-11T07:21:17.999Z,15.44
2018-10-11T07:23:46.159Z,15.48
2018-10-11T07:26:14.348Z,15.51
2018-10-11T07:28:42.528Z,15.54
2018-10-11T07:31:10.678Z,15.57
2018-10-11T07:33:38.842Z,15.62
2018-10-11T07:36:07.016Z,15.64
2018-10-11T07:38:35.179Z,15.67
2018-10-11T07:41:03.398Z,15.70
2018-10-11T07:43:31.645Z,15.73
2018-10-11T07:45:59.790Z,15.73
2018-10-11T07:48:27.964Z,15.76
2018-10-11T07:50:56.146Z,15.76
2018-10-11T07:53:24.319Z,15.78
2018-10-11T07:55:52.470Z,15.80
2018-10-11T07:58:20.627Z,15.83
2018-10-11T08:00:48.883Z,15.85
2018-10-11T08:03:17.067Z,15.88
2018-10-11T08:05:45.219Z,15.92
2018-10-11T08:08:13.423Z,15.95
2018-10-11T08:10:41.879Z,15.99
2018-10-11T08:13:09.719Z,16.04
2018-10-11T08:15:37.898Z,16.07
2018-10-11T08:18:06.576Z,16.12
2018-10-11T08:20:34.959Z,16.15
2018-10-11T08:23:03.023Z,16.17
2018-10-11T08:25:31.618Z,16.21
2018-10-11T08:27:59.351Z,16.24
2018-10-11T08:30:27.591Z,16.28
2018-10-11T08:32:55.792Z,16.32
2018-10-11T08:35:23.909Z,16.36
2018-10-11T08:37:52.242Z,16.40
2018-10-11T08:40:20.668Z,16.45
2018-10-11T08:42:48.440Z,16.51
2018-10-11T08:45:16.600Z,16.57
2018-10-11T08:47:44.769Z,16.63
2018-10-11T08:50:12.998Z,16.69
2018-10-11T08:52:41.121Z,16.74
2018-10-11T08:55:09.289Z,16.79
2018-10-11T08:57:37.457Z,16.81
2018-10-11T09:00:06.636Z,16.85
2018-10-11T09:02:34.832Z,16.91
2018-10-11T09:05:03.041Z,16.94
2018-10-11T09:07:31.169Z,16.99
2018-10-11T09:09:59.382Z,17.04
2018-10-11T09:12:27.542Z,17.11
2018-10-11T09:14:55.711Z,17.16
2018-10-11T09:17:23.936Z,17.22
2018-10-11T09:19:52.047Z,17.29
2018-10-11T09:22:20.211Z,17.35
2018-10-11T09:24:48.538Z,17.40
2018-10-11T09:27:16.704Z,17.46
2018-10-11T09:29:44.876Z,17.55
2018-10-11T09:32:13.018Z,17.65
2018-10-11T09:34:41.190Z,17.78
2018-10-11T09:37:09.336Z,17.92
2018-10-11T09:39:37.538Z,18.06
2018-10-11T09:42:05.844Z,18.18
2018-10-11T09:44:33.990Z,18.31
2018-10-11T09:47:02.144Z,18.44
2018-10-11T09:49:30.327Z,18.53
2018-10-11T09:51:58.521Z,18.61
2018-10-11T09:54:26.808Z,18.71
2018-10-11T09:57:15.248Z,18.81
2018-10-11T09:59:43.475Z,18.94
2018-10-11T10:02:12.524Z,19.09
2018-10-11T10:04:45.103Z,19.21
2018-10-11T10:07:13.482Z,19.31
2018-10-11T10:09:42.498Z,19.38
2018-10-11T10:12:11.244Z,19.47
2018-10-11T10:14:40.033Z,19.54
2018-10-11T10:17:08.251Z,19.60
2018-10-11T10:19:36.427Z,19.69
2018-10-11T10:22:04.991Z,19.79
2018-10-11T10:24:33.563Z,19.87
2018-10-11T10:27:01.773Z,19.91
2018-10-11T10:29:29.904Z,19.98
2018-10-11T10:31:58.579Z,20.07
2018-10-11T10:34:26.992Z,20.16
2018-10-11T10:36:55.175Z,20.26
2018-10-11T10:39:23.822Z,20.35
2018-10-11T10:41:51.975Z,20.44
2018-10-11T10:44:20.170Z,20.54
2018-10-11T10:46:48.433Z,20.64
2018-10-11T10:49:16.571Z,20.74
2018-10-11T10:51:44.727Z,20.86
2018-10-11T10:54:18.285Z,20.96
2018-10-11T10:56:46.374Z,21.05
2018-10-11T10:59:14.554Z,21.06
2018-10-11T11:01:42.732Z,21.10
2018-10-11T11:04:10.888Z,21.12
2018-10-11T11:06:39.072Z,21.08
2018-10-11T11:09:09.329Z,21.04
2018-10-11T11:11:37.751Z,20.97
2018-10-11T11:14:05.951Z,20.94
2018-10-11T11:16:34.107Z,21.01
2018-10-11T11:19:02.340Z,21.10
2018-10-11T11:21:30.476Z,21.20
2018-10-11T11:23:58.672Z,21.25
2018-10-11T11:26:26.928Z,21.24
2018-10-11T11:28:55.140Z,21.28
2018-10-11T11:31:23.303Z,21.31
2018-10-11T11:33:51.511Z,21.29
2018-10-11T11:36:20.307Z,21.26
2018-10-11T11:38:48.504Z,21.22
2018-10-11T11:41:17.189Z,21.18
2018-10-11T11:43:45.363Z,21.13
2018-10-11T11:46:13.531Z,21.11
2018-10-11T11:48:41.810Z,21.08
2018-10-11T11:51:11.190Z,21.04
2018-10-11T11:53:40.310Z,21.04
2018-10-11T11:56:08.571Z,21.05
2018-10-11T11:58:37.045Z,21.06
2018-10-11T12:01:05.214Z,21.11
2018-10-11T12:03:33.379Z,21.16
2018-10-11T12:06:01.668Z,21.19
2018-10-11T12:08:32.504Z,21.23
2018-10-11T12:11:00.788Z,21.23
2018-10-11T12:13:29.022Z,21.23
2018-10-11T12:15:57.218Z,21.23
2018-10-11T12:18:25.451Z,21.25
2018-10-11T12:20:53.715Z,21.25
2018-10-11T12:23:22.073Z,21.23
2018-10-11T12:25:50.322Z,21.20
2018-10-11T12:28:19.185Z,21.18
2018-10-11T12:30:47.487Z,21.16
2018-10-11T12:33:15.752Z,21.15
2018-10-11T12:35:43.952Z,21.15
2018-10-11T12:38:12.368Z,21.11
2018-10-11T12:40:40.771Z,21.05
2018-10-11T12:43:09.507Z,21.00
2018-10-11T12:45:38.073Z,20.96
2018-10-11T12:48:05.974Z,20.92
2018-10-11T12:50:34.418Z,20.90
2018-10-11T12:53:02.815Z,20.88
2018-10-11T12:55:31.016Z,20.87
2018-10-11T12:57:59.211Z,20.86
2018-10-11T13:00:27.397Z,20.84
2018-10-11T13:02:55.792Z,20.82
2018-10-11T13:05:23.979Z,20.78
2018-10-11T13:07:52.241Z,20.74
2018-10-11T13:10:20.465Z,20.71
2018-10-11T13:12:48.814Z,20.68
2018-10-11T13:15:17.113Z,20.66
2018-10-11T13:17:45.295Z,20.63
2018-10-11T13:20:13.456Z,20.62
2018-10-11T13:22:41.610Z,20.61
2018-10-11T13:25:09.758Z,20.60
2018-10-11T13:27:38.110Z,20.60
2018-10-11T13:30:06.356Z,20.59
2018-10-11T13:32:34.571Z,20.58
2018-10-11T13:35:02.930Z,20.57
2018-10-11T13:37:31.226Z,20.57
2018-10-11T13:39:59.419Z,20.59
2018-10-11T13:42:27.629Z,20.60
2018-10-11T13:44:55.984Z,20.60
2018-10-11T13:47:24.352Z,20.59
2018-10-11T13:49:52.455Z,20.57
2018-10-11T13:52:22.512Z,20.55
2018-10-11T13:54:49.217Z,20.52
2018-10-11T13:57:17.472Z,20.51
2018-10-11T13:59:45.711Z,20.51
2018-10-11T14:02:13.977Z,20.51
2018-10-11T14:04:42.287Z,20.50
2018-10-11T14:07:10.684Z,20.48
2018-10-11T14:09:39.136Z,20.45
2018-10-11T14:12:07.414Z,20.44
2018-10-11T14:14:37.621Z,20.41
2018-10-11T14:17:05.803Z,20.40
2018-10-11T14:19:33.958Z,20.40
2018-10-11T14:22:02.231Z,20.41
2018-10-11T14:24:30.871Z,20.42
2018-10-11T14:26:59.415Z,20.45
2018-10-11T14:29:27.557Z,20.45
2018-10-11T14:31:56.009Z,20.46
2018-10-11T14:34:27.221Z,20.48
2018-10-11T14:36:55.829Z,20.47
2018-10-11T14:39:25.310Z,20.49
2018-10-11T14:41:53.547Z,20.52
2018-10-11T14:44:21.780Z,20.56
2018-10-11T14:46:50.057Z,20.62
2018-10-11T14:49:18.285Z,20.64
2018-10-11T14:51:48.723Z,20.68
2018-10-11T14:54:14.819Z,20.67
2018-10-11T14:56:43.151Z,20.65
2018-10-11T14:59:13.199Z,20.62
2018-10-11T15:01:42.807Z,20.57
2018-10-11T15:04:16.407Z,20.53
2018-10-11T15:06:49.102Z,20.48
2018-10-11T15:09:21.879Z,20.42
2018-10-11T15:11:51.304Z,20.37
2018-10-11T15:14:21.809Z,20.31
2018-10-11T15:16:53.869Z,20.25
2018-10-11T15:19:24.714Z,20.21
2018-10-11T15:21:55.202Z,20.19
2018-10-11T15:24:25.328Z,20.17
2018-10-11T15:26:56.402Z,20.17
2018-10-11T15:29:26.193Z,20.14
2018-10-11T15:31:55.410Z,20.12
2018-10-11T15:34:26.422Z,20.10
2018-10-11T15:36:59.101Z,20.08
2018-10-11T15:39:29.337Z,20.08
2018-10-11T15:42:01.198Z,20.09
2018-10-11T15:44:31.673Z,20.10
2018-10-11T15:47:01.965Z,20.11
2018-10-11T15:49:32.896Z,20.11
2018-10-11T15:52:03.768Z,20.13
2018-10-11T15:54:33.930Z,20.13
2018-10-11T15:57:03.641Z,20.14
2018-10-11T15:59:34.244Z,20.14
2018-10-11T16:02:04.416Z,20.13
2018-10-11T16:04:34.613Z,20.13
2018-10-11T16:07:06.991Z,20.14
2018-10-11T16:09:37.314Z,20.14
2018-10-11T16:12:07.353Z,20.14
2018-10-11T16:14:38.483Z,20.15
2018-10-11T16:17:09.304Z,20.15
2018-10-11T16:19:42.240Z,20.15
2018-10-11T16:22:12.436Z,20.11
2018-10-11T16:24:41.786Z,20.07
2018-10-11T16:27:14.432Z,20.03
2018-10-11T16:29:45.327Z,19.98
2018-10-11T16:32:14.888Z,19.93
2018-10-11T16:34:44.542Z,19.89
2018-10-11T16:37:15.184Z,19.84
2018-10-11T16:39:45.403Z,19.80
2018-10-11T16:42:17.848Z,19.77
2018-10-11T16:44:52.359Z,19.74
2018-10-11T16:47:22.646Z,19.72
2018-10-11T16:49:53.684Z,19.69
2018-10-11T16:52:24.251Z,19.64
2018-10-11T16:54:53.898Z,19.61
2018-10-11T16:57:23.624Z,19.58
2018-10-11T16:59:54.763Z,19.54
2018-10-11T17:02:24.948Z,19.49
2018-10-11T17:04:59.144Z,19.47
2018-10-11T17:07:28.907Z,19.44
2018-10-11T17:09:58.351Z,19.43
2018-10-11T17:12:30.065Z,19.42
2018-10-11T17:15:00.087Z,19.42
2018-10-11T17:17:32.269Z,19.40
2018-10-11T17:20:05.883Z,19.38
2018-10-11T17:22:36.689Z,19.38
2018-10-11T17:25:06.687Z,19.37
2018-10-11T17:27:37.573Z,19.35
2018-10-11T17:30:07.238Z,19.32
2018-10-11T17:32:37.673Z,19.30
2018-10-11T17:37:55.172Z,19.23
2018-10-11T17:40:23.652Z,19.21
2018-10-11T17:42:51.902Z,19.19
2018-10-11T17:45:20.561Z,19.15
2018-10-11T17:47:53.840Z,19.12
2018-10-11T17:50:24.686Z,19.12
2018-10-11T17:52:52.808Z,19.09
2018-10-11T17:55:22.462Z,19.07
2018-10-11T17:57:51.637Z,19.04
2018-10-11T18:00:22.864Z,19.00
2018-10-11T18:02:51.119Z,18.97
2018-10-11T18:05:24.626Z,18.93
2018-10-11T18:07:52.933Z,18.91
2018-10-11T18:10:21.117Z,18.88
2018-10-11T18:12:49.343Z,18.86
2018-10-11T18:15:17.491Z,18.82
2018-10-11T18:17:47.689Z,18.78
2018-10-11T18:20:23.413Z,18.76
2018-10-11T18:22:51.583Z,18.74
2018-10-11T18:25:26.001Z,18.71
2018-10-11T18:27:54.937Z,18.68
2018-10-11T18:30:23.096Z,18.65
2018-10-11T18:32:51.356Z,18.60
2018-10-11T18:35:19.631Z,18.58
2018-10-11T18:37:47.867Z,18.57
2018-10-11T18:40:16.209Z,18.53
2018-10-11T18:42:44.632Z,18.50
2018-10-11T18:45:12.787Z,18.46
2018-10-11T18:47:41.016Z,18.41
2018-10-11T18:50:09.244Z,18.39
2018-10-11T18:52:37.440Z,18.36
2018-10-11T18:55:05.671Z,18.34
2018-10-11T18:57:33.839Z,18.30
2018-10-11T19:00:02.156Z,18.28
2018-10-11T19:02:30.340Z,18.25
2018-10-11T19:04:58.509Z,18.26
2018-10-11T19:07:29.148Z,18.24
2018-10-11T19:09:57.406Z,18.22
2018-10-11T19:12:25.567Z,18.19
2018-10-11T19:14:53.966Z,18.16
2018-10-11T19:17:22.123Z,18.13
2018-10-11T19:19:50.980Z,18.12
2018-10-11T19:22:19.191Z,18.10
2018-10-11T19:24:47.363Z,18.07
2018-10-11T19:27:15.743Z,18.06
2018-10-11T19:29:43.939Z,18.06
2018-10-11T19:32:12.106Z,18.06
2018-10-11T19:34:42.870Z,18.06
2018-10-11T19:37:12.376Z,18.06
2018-10-11T19:39:40.590Z,18.07
2018-10-11T19:42:13.437Z,18.09
2018-10-11T19:44:41.590Z,18.09
2018-10-11T19:47:09.755Z,18.09
2018-10-11T19:49:37.915Z,18.08
2018-10-11T19:52:06.170Z,18.07
2018-10-11T19:54:34.627Z,18.06
2018-10-11T19:57:03.059Z,18.06
2018-10-11T19:59:31.555Z,18.03
2018-10-11T20:01:59.695Z,18.01
2018-10-11T20:04:27.969Z,17.99
2018-10-11T20:06:56.155Z,17.96
2018-10-11T20:09:24.602Z,17.96
2018-10-11T20:11:52.774Z,17.95
2018-10-11T20:14:20.962Z,17.92
2018-10-11T20:16:49.131Z,17.91
2018-10-11T20:19:17.295Z,17.90
2018-10-11T20:21:52.716Z,17.89
2018-10-11T20:24:22.073Z,17.86
2018-10-11T20:26:50.224Z,17.83
2018-10-11T20:29:18.391Z,17.80
2018-10-11T20:31:46.588Z,17.78
2018-10-11T20:34:14.833Z,17.79
2018-10-11T20:36:42.983Z,17.79
2018-10-11T20:39:11.252Z,17.79
2018-10-11T20:41:39.471Z,17.80
2018-10-11T20:44:07.685Z,17.79
2018-10-11T20:46:35.836Z,17.78
2018-10-11T20:49:04.000Z,17.77
2018-10-11T20:51:32.281Z,17.77
2018-10-11T20:54:00.338Z,17.79
2018-10-11T20:56:28.815Z,17.79
2018-10-11T20:58:56.960Z,17.77
2018-10-11T21:01:25.211Z,17.78
2018-10-11T21:03:53.371Z,17.78
2018-10-11T21:06:21.610Z,17.77
2018-10-11T21:08:49.792Z,17.75
2018-10-11T21:11:17.962Z,17.75
2018-10-11T21:13:46.143Z,17.75
2018-10-11T21:16:14.291Z,17.76
2018-10-11T21:18:42.500Z,17.76
2018-10-11T21:21:10.711Z,17.76
2018-10-11T21:23:38.855Z,17.77
2018-10-11T21:26:07.214Z,17.76
2018-10-11T21:28:35.406Z,17.77
2018-10-11T21:31:03.688Z,17.75
2018-10-11T21:33:32.419Z,17.75
2018-10-11T21:36:00.605Z,17.74
2018-10-11T21:38:28.766Z,17.74
2018-10-11T21:40:57.019Z,17.73
2018-10-11T21:43:25.737Z,17.72
2018-10-11T21:45:53.908Z,17.72
2018-10-11T21:48:22.084Z,17.70
2018-10-11T21:50:50.333Z,17.68
2018-10-11T21:53:19.956Z,17.68
2018-10-11T21:55:48.091Z,17.65
2018-10-11T21:58:16.595Z,17.62
2018-10-11T22:00:50.095Z,17.61
2018-10-11T22:03:18.302Z,17.62
2018-10-11T22:05:46.464Z,17.62
2018-10-11T22:08:15.639Z,17.61
2018-10-11T22:10:45.856Z,17.60
2018-10-11T22:13:14.008Z,17.59
2018-10-11T22:15:42.173Z,17.58
2018-10-11T22:18:10.342Z,17.57
2018-10-11T22:20:38.621Z,17.58
2018-10-11T22:23:06.895Z,17.57
2018-10-11T22:25:35.171Z,17.56
2018-10-11T22:28:04.580Z,17.53
2018-10-11T22:30:32.783Z,17.50
2018-10-11T22:33:00.943Z,17.51
2018-10-11T22:35:29.133Z,17.51
2018-10-11T22:38:01.603Z,17.50
2018-10-11T22:40:29.995Z,17.51
2018-10-11T22:42:58.575Z,17.52
2018-10-11T22:45:27.259Z,17.51
2018-10-11T22:47:56.131Z,17.52
2018-10-11T22:50:25.347Z,17.52
2018-10-11T22:52:53.595Z,17.51
2018-10-11T22:55:21.766Z,17.50
2018-10-11T22:57:49.943Z,17.48
2018-10-11T23:00:18.118Z,17.50
2018-10-11T23:02:46.276Z,17.49
2018-10-11T23:05:14.499Z,17.52
2018-10-11T23:07:42.703Z,17.53
2018-10-11T23:10:10.850Z,17.55
2018-10-11T23:12:39.031Z,17.57
2018-10-11T23:15:07.308Z,17.58
2018-10-11T23:17:35.364Z,17.62
2018-10-11T23:20:03.583Z,17.63
2018-10-11T23:22:31.778Z,17.63
2018-10-11T23:24:59.912Z,17.64
2018-10-11T23:27:28.075Z,17.63
2018-10-11T23:29:56.333Z,17.63
2018-10-11T23:32:24.507Z,17.59
2018-10-11T23:34:52.691Z,17.57
2018-10-11T23:37:20.838Z,17.55
2018-10-11T23:39:48.993Z,17.53
2018-10-11T23:42:17.182Z,17.52
2018-10-11T23:44:47.219Z,17.51
2018-10-11T23:47:15.383Z,17.48
2018-10-11T23:49:43.574Z,17.46
2018-10-11T23:52:11.754Z,17.45
2018-10-11T23:54:39.935Z,17.43
2018-10-11T23:57:08.214Z,17.43
2018-10-11T23:59:36.386Z,17.44
